Time;durP1;ratioP1;P1;durP2;ratioP2;P2;SDS_P1;SDS_P2;PMS_P1;PMS_P2;Temp;Humidity;BMP_temperature;BMP_pressure;BME280_temperature;BME280_humidity;BME280_pressure;Samples;Min_cycle;Max_cycle;Signal;HPM_P1;HPM_P2
2023/07/18 00:00:04;;;;;;;0.2;0.1;;;;;;;;;;;;;-68
2023/07/18 00:04:29;;;;;;;;;;;;;;;16.57;58.22949;102131.5;;;;-68
2023/07/18 00:09:29;;;;;;;;;;;;;;;16.53;58.33789;102133.6;;;;-68
2023/07/18 00:14:31;;;;;;;;;;;;;;;16.5;58.34375;102129.5;;;;-68
2023/07/18 00:19:29;;;;;;;;;;;;;;;16.46;58.29395;102127;;;;-67
2023/07/18 00:24:30;;;;;;;;;;;;;;;16.42;58.53613;102126.5;;;;-71
2023/07/18 00:29:29;;;;;;;;;;;;;;;16.38;59.09766;102127.5;;;;-67
2023/07/18 00:30:06;;;;;;;0.2;0;;;;;;;;;;;;;-68
2023/07/18 00:34:29;;;;;;;;;;;;;;;16.34;59.33887;102124.9;;;;-68
2023/07/18 00:39:29;;;;;;;;;;;;;;;16.31;58.85059;102129.3;;;;-71
2023/07/18 00:44:29;;;;;;;;;;;;;;;16.29;58.76758;102125.3;;;;-71
2023/07/18 00:49:29;;;;;;;;;;;;;;;16.29;59.21875;102125;;;;-67
2023/07/18 00:54:30;;;;;;;;;;;;;;;16.25;59.01172;102121.8;;;;-71
2023/07/18 00:59:30;;;;;;;;;;;;;;;16.23;58.77051;102115.6;;;;-68
2023/07/18 01:00:12;;;;;;;0.2;0;;;;;;;;;;;;;-68
2023/07/18 01:04:29;;;;;;;;;;;;;;;16.21;58.92773;102118.8;;;;-68
2023/07/18 01:09:29;;;;;;;;;;;;;;;16.19;59.80371;102117.9;;;;-69
2023/07/18 01:14:30;;;;;;;;;;;;;;;16.22;59.74121;102119.8;;;;-70
2023/07/18 01:19:29;;;;;;;;;;;;;;;16.23;59.58398;102122.2;;;;-68
2023/07/18 01:24:29;;;;;;;;;;;;;;;16.18;60.2998;102121.1;;;;-68
2023/07/18 01:29:32;;;;;;;;;;;;;;;16.2;60.70703;102121;;;;-69
2023/07/18 01:30:11;;;;;;;0.2;0;;;;;;;;;;;;;-68
2023/07/18 01:34:29;;;;;;;;;;;;;;;16.16;61.31055;102118;;;;-68
2023/07/18 01:39:29;;;;;;;;;;;;;;;16.15;61.93066;102107.8;;;;-68
2023/07/18 01:44:29;;;;;;;;;;;;;;;16.16;61.78418;102104.5;;;;-68
2023/07/18 01:49:32;;;;;;;;;;;;;;;16.14;61.92773;102098.1;;;;-70
2023/07/18 01:54:30;;;;;;;;;;;;;;;16.12;62.00293;102098.6;;;;-68
2023/07/18 01:59:29;;;;;;;;;;;;;;;16.14;61.98438;102099.4;;;;-68
2023/07/18 02:00:18;;;;;;;0.2;0;;;;;;;;;;;;;-70
2023/07/18 02:04:29;;;;;;;;;;;;;;;16.13;62.27637;102095;;;;-69
2023/07/18 02:09:29;;;;;;;;;;;;;;;16.12;63.15234;102090.6;;;;-68
2023/07/18 02:14:29;;;;;;;;;;;;;;;16.11;62.35059;102090.9;;;;-69
2023/07/18 02:19:29;;;;;;;;;;;;;;;16.05;62.81543;102084.7;;;;-68
2023/07/18 02:24:29;;;;;;;;;;;;;;;16.1;62.50879;102079.1;;;;-69
2023/07/18 02:29:29;;;;;;;;;;;;;;;16.07;62.66113;102081.2;;;;-69
2023/07/18 02:30:16;;;;;;;0.2;0.1;;;;;;;;;;;;;-70
2023/07/18 02:34:29;;;;;;;;;;;;;;;16.07;62.53711;102080.9;;;;-69
2023/07/18 02:39:30;;;;;;;;;;;;;;;16.06;62.75;102079.1;;;;-68
2023/07/18 02:44:29;;;;;;;;;;;;;;;16.06;62.83984;102071.1;;;;-68
2023/07/18 02:49:29;;;;;;;;;;;;;;;16.06;61.78125;102072;;;;-68
2023/07/18 02:54:29;;;;;;;;;;;;;;;16.03;61.70898;102068.5;;;;-68
2023/07/18 02:59:29;;;;;;;;;;;;;;;15.98;61.66992;102062.3;;;;-69
2023/07/18 03:00:25;;;;;;;0.2;0;;;;;;;;;;;;;-67
2023/07/18 03:04:30;;;;;;;;;;;;;;;15.95;61.58594;102061.8;;;;-70
2023/07/18 03:09:33;;;;;;;;;;;;;;;15.96;61.77832;102063;;;;-67
2023/07/18 03:14:29;;;;;;;;;;;;;;;15.92;61.95215;102064;;;;-69
2023/07/18 03:19:31;;;;;;;;;;;;;;;15.9;61.64648;102065.8;;;;-69
2023/07/18 03:24:29;;;;;;;;;;;;;;;15.85;61.5957;102068.5;;;;-68
2023/07/18 03:29:29;;;;;;;;;;;;;;;15.86;61.5957;102065.6;;;;-68
2023/07/18 03:30:21;;;;;;;0.2;0.1;;;;;;;;;;;;;-69
2023/07/18 03:34:29;;;;;;;;;;;;;;;15.82;61.25098;102065.7;;;;-67
2023/07/18 03:39:32;;;;;;;;;;;;;;;15.83;62.44727;102066.4;;;;-67
2023/07/18 03:44:31;;;;;;;;;;;;;;;15.77;61.9082;102067.8;;;;-69
2023/07/18 03:49:30;;;;;;;;;;;;;;;15.77;62.02148;102064.5;;;;-69
2023/07/18 03:54:29;;;;;;;;;;;;;;;15.75;62.3125;102062.8;;;;-70
2023/07/18 03:59:30;;;;;;;;;;;;;;;15.77;62.38184;102063.5;;;;-67
2023/07/18 04:00:22;;;;;;;0.2;0;;;;;;;;;;;;;-69
2023/07/18 04:04:37;;;;;;;;;;;;;;;15.75;62.97656;102063;;;;-69
2023/07/18 04:09:29;;;;;;;;;;;;;;;15.76;62.91016;102065.6;;;;-69
2023/07/18 04:14:29;;;;;;;;;;;;;;;15.74;64.57227;102062.8;;;;-71
2023/07/18 04:19:29;;;;;;;;;;;;;;;15.74;63.90918;102068.3;;;;-67
2023/07/18 04:24:29;;;;;;;;;;;;;;;15.77;63.0791;102074.3;;;;-68
2023/07/18 04:29:29;;;;;;;;;;;;;;;15.83;64.52832;102072.2;;;;-70
2023/07/18 04:30:24;;;;;;;0.2;0;;;;;;;;;;;;;-68
2023/07/18 04:34:29;;;;;;;;;;;;;;;15.89;64.08789;102071.5;;;;-68
2023/07/18 04:39:29;;;;;;;;;;;;;;;15.93;64.49902;102072.3;;;;-68
2023/07/18 04:44:30;;;;;;;;;;;;;;;16;64.00195;102072.9;;;;-70
2023/07/18 04:49:29;;;;;;;;;;;;;;;16.05;63.83984;102069;;;;-69
2023/07/18 04:54:29;;;;;;;;;;;;;;;16.13;63.69629;102061.5;;;;-68
2023/07/18 04:59:29;;;;;;;;;;;;;;;16.21;64.29297;102054.2;;;;-67
2023/07/18 05:00:28;;;;;;;0.3;0.1;;;;;;;;;;;;;-68
2023/07/18 05:04:29;;;;;;;;;;;;;;;16.33;64.19629;102051.8;;;;-70
2023/07/18 05:09:29;;;;;;;;;;;;;;;16.43;64.95508;102050.1;;;;-69
2023/07/18 05:14:31;;;;;;;;;;;;;;;16.51;65.04688;102044.1;;;;-67
2023/07/18 05:19:29;;;;;;;;;;;;;;;16.61;66.2334;102044.5;;;;-70
2023/07/18 05:24:29;;;;;;;;;;;;;;;16.65;65.78809;102038.4;;;;-68
2023/07/18 05:29:29;;;;;;;;;;;;;;;16.71;66.10156;102042.3;;;;-69
2023/07/18 05:30:28;;;;;;;0.2;0;;;;;;;;;;;;;-71
2023/07/18 05:34:29;;;;;;;;;;;;;;;16.83;66.1416;102041;;;;-68
2023/07/18 05:39:32;;;;;;;;;;;;;;;17.2;65.34961;102043.2;;;;-70
2023/07/18 05:44:30;;;;;;;;;;;;;;;17.8;64.72754;102047.9;;;;-68
2023/07/18 05:49:29;;;;;;;;;;;;;;;18.37;62.96582;102048;;;;-69
2023/07/18 05:54:30;;;;;;;;;;;;;;;18.48;62.94629;102046.2;;;;-67
2023/07/18 05:59:30;;;;;;;;;;;;;;;18.51;63.89063;102049.1;;;;-69
2023/07/18 06:00:31;;;;;;;0.2;0;;;;;;;;;;;;;-69
2023/07/18 06:04:29;;;;;;;;;;;;;;;18.56;63.22949;102052.8;;;;-68
2023/07/18 06:09:29;;;;;;;;;;;;;;;18.69;63.96191;102051.7;;;;-68
2023/07/18 06:14:31;;;;;;;;;;;;;;;19.29;62.15332;102051.7;;;;-69
2023/07/18 06:19:29;;;;;;;;;;;;;;;19.93;61.06055;102054.4;;;;-68
2023/07/18 06:24:29;;;;;;;;;;;;;;;20.49;59.63477;102057.2;;;;-69
2023/07/18 06:29:29;;;;;;;;;;;;;;;20.97;59.20801;102056.3;;;;-72
2023/07/18 06:30:33;;;;;;;0.2;0.1;;;;;;;;;;;;;-71
2023/07/18 06:34:30;;;;;;;;;;;;;;;21.41;58.29492;102060.8;;;;-71
2023/07/18 06:39:29;;;;;;;;;;;;;;;21.58;57.75879;102057.8;;;;-72
2023/07/18 06:44:31;;;;;;;;;;;;;;;21.76;57.33691;102063.2;;;;-71
2023/07/18 06:49:29;;;;;;;;;;;;;;;22.04;57.01758;102060.8;;;;-71
2023/07/18 06:54:30;;;;;;;;;;;;;;;22.41;56.49316;102057.5;;;;-72
2023/07/18 06:59:29;;;;;;;;;;;;;;;22.89;55.39453;102054.9;;;;-71
2023/07/18 07:00:36;;;;;;;0.2;0;;;;;;;;;;;;;-71
2023/07/18 07:04:29;;;;;;;;;;;;;;;23.09;55.14453;102056.1;;;;-74
2023/07/18 07:09:29;;;;;;;;;;;;;;;23.46;54.73047;102054.1;;;;-72
2023/07/18 07:14:29;;;;;;;;;;;;;;;23.81;54.10742;102059.1;;;;-71
2023/07/18 07:19:29;;;;;;;;;;;;;;;23.96;53.36621;102058.1;;;;-71
2023/07/18 07:24:30;;;;;;;;;;;;;;;24.1;53.47461;102058.7;;;;-70
2023/07/18 07:29:29;;;;;;;;;;;;;;;24.25;53.15918;102056.4;;;;-72
2023/07/18 07:30:40;;;;;;;0.2;0;;;;;;;;;;;;;-72
2023/07/18 07:34:29;;;;;;;;;;;;;;;24.55;52.40039;102058.7;;;;-71
2023/07/18 07:39:32;;;;;;;;;;;;;;;24.72;52.25781;102052.4;;;;-73
2023/07/18 07:44:34;;;;;;;;;;;;;;;24.9;51.8291;102050.6;;;;-72
2023/07/18 07:49:29;;;;;;;;;;;;;;;25.04;51.60449;102043.2;;;;-71
2023/07/18 07:54:29;;;;;;;;;;;;;;;25.31;51.38184;102041.3;;;;-72
2023/07/18 07:59:29;;;;;;;;;;;;;;;25.65;50.57617;102037.7;;;;-72
2023/07/18 08:00:43;;;;;;;0.2;0;;;;;;;;;;;;;-71
2023/07/18 08:04:30;;;;;;;;;;;;;;;25.83;50.34277;102029.4;;;;-72
2023/07/18 08:09:29;;;;;;;;;;;;;;;26.13;49.57715;102031.8;;;;-71
2023/07/18 08:14:29;;;;;;;;;;;;;;;26.24;49.56738;102025.2;;;;-72
2023/07/18 08:19:31;;;;;;;;;;;;;;;26.48;49.57031;102022.9;;;;-71
2023/07/18 08:24:29;;;;;;;;;;;;;;;26.75;48.92676;102021.7;;;;-71
2023/07/18 08:29:31;;;;;;;;;;;;;;;26.77;48.29297;102016.5;;;;-71
2023/07/18 08:30:47;;;;;;;0.2;0;;;;;;;;;;;;;-73
2023/07/18 08:34:29;;;;;;;;;;;;;;;26.52;48.55469;102011.5;;;;-75
2023/07/18 08:39:29;;;;;;;;;;;;;;;26.49;48.47168;102014.1;;;;-75
2023/07/18 08:44:31;;;;;;;;;;;;;;;26.56;48.33887;102018.1;;;;-72
2023/07/18 08:49:31;;;;;;;;;;;;;;;26.58;47.91211;102023.5;;;;-71
2023/07/18 08:54:29;;;;;;;;;;;;;;;26.59;47.6123;102019;;;;-72
2023/07/18 08:59:29;;;;;;;;;;;;;;;26.55;47.52734;102017.4;;;;-73
2023/07/18 09:00:52;;;;;;;0.2;0;;;;;;;;;;;;;-72
2023/07/18 09:04:29;;;;;;;;;;;;;;;26.44;47.75977;102015.8;;;;-70
2023/07/18 09:09:29;;;;;;;;;;;;;;;26.55;47.36523;102007.9;;;;-72
2023/07/18 09:14:30;;;;;;;;;;;;;;;26.38;47.5791;102012.4;;;;-71
2023/07/18 09:19:48;;;;;;;;;;;;;;;26.43;47.44531;102000.4;;;;-72
2023/07/18 09:24:35;;;;;;;;;;;;;;;26.35;47.38965;102001.6;;;;-71
2023/07/18 09:29:29;;;;;;;;;;;;;;;26.32;47.37695;101988.6;;;;-72
2023/07/18 09:30:59;;;;;;;0.2;0.1;;;;;;;;;;;;;-71
2023/07/18 09:34:33;;;;;;;;;;;;;;;26.28;47.34863;101991.4;;;;-71
2023/07/18 09:39:30;;;;;;;;;;;;;;;26.4;47.55762;101992.3;;;;-71
2023/07/18 09:44:29;;;;;;;;;;;;;;;26.84;46.82813;101983.8;;;;-71
2023/07/18 09:49:30;;;;;;;;;;;;;;;26.96;46.79395;101984.1;;;;-71
2023/07/18 09:54:33;;;;;;;;;;;;;;;27.02;46.16211;101977.3;;;;-73
2023/07/18 09:59:30;;;;;;;;;;;;;;;27.12;45.97461;101984.6;;;;-72
2023/07/18 10:01:03;;;;;;;0.2;0;;;;;;;;;;;;;-73
2023/07/18 10:04:29;;;;;;;;;;;;;;;27.38;46.2793;101986;;;;-71
2023/07/18 10:09:31;;;;;;;;;;;;;;;27.51;46.03711;101977.9;;;;-73
2023/07/18 10:14:44;;;;;;;;;;;;;;;27.56;45.9375;101978.2;;;;-72
2023/07/18 10:19:29;;;;;;;;;;;;;;;27.55;45.94824;101977.2;;;;-72
2023/07/18 10:24:33;;;;;;;;;;;;;;;27.43;46.26172;101971.7;;;;-71
2023/07/18 10:29:33;;;;;;;;;;;;;;;27.4;45.89844;101965.3;;;;-71
2023/07/18 10:31:08;;;;;;;0.1;0;;;;;;;;;;;;;-72
2023/07/18 10:34:29;;;;;;;;;;;;;;;27.57;45.33496;101965.7;;;;-71
2023/07/18 10:39:41;;;;;;;;;;;;;;;27.94;44.90723;101962.2;;;;-71
2023/07/18 10:44:33;;;;;;;;;;;;;;;28.11;44.14355;101956.8;;;;-72
2023/07/18 10:49:32;;;;;;;;;;;;;;;28.26;44.19336;101947.8;;;;-72
2023/07/18 10:54:29;;;;;;;;;;;;;;;28.36;44.22656;101947.3;;;;-71
2023/07/18 10:59:40;;;;;;;;;;;;;;;28.49;43.71484;101939.9;;;;-71
2023/07/18 11:01:13;;;;;;;0.2;0;;;;;;;;;;;;;-71
2023/07/18 11:04:32;;;;;;;;;;;;;;;28.51;43.33301;101932.4;;;;-72
2023/07/18 11:09:31;;;;;;;;;;;;;;;28.58;43.02539;101926.8;;;;-71
2023/07/18 11:14:32;;;;;;;;;;;;;;;28.82;43.37402;101919.1;;;;-73
2023/07/18 11:19:29;;;;;;;;;;;;;;;29.13;42.37598;101920.9;;;;-73
2023/07/18 11:24:29;;;;;;;;;;;;;;;29.37;42.64355;101921.4;;;;-72
2023/07/18 11:29:33;;;;;;;;;;;;;;;29.46;43.50488;101918.6;;;;-72
2023/07/18 11:31:27;;;;;;;0.1;0;;;;;;;;;;;;;-72
2023/07/18 11:34:30;;;;;;;;;;;;;;;29.69;42.74512;101916;;;;-73
2023/07/18 11:39:31;;;;;;;;;;;;;;;29.8;41.87891;101913;;;;-74
2023/07/18 11:44:32;;;;;;;;;;;;;;;29.88;42.48145;101912.4;;;;-73
2023/07/18 11:49:39;;;;;;;;;;;;;;;29.89;43.37012;101910.2;;;;-73
2023/07/18 11:54:30;;;;;;;;;;;;;;;30.03;42.84668;101918.1;;;;-75
2023/07/18 11:59:29;;;;;;;;;;;;;;;30.11;42.83105;101911.3;;;;-73
2023/07/18 12:01:23;;;;;;;0.1;0;;;;;;;;;;;;;-75
2023/07/18 12:04:31;;;;;;;;;;;;;;;30.29;43.50195;101907;;;;-73
2023/07/18 12:09:29;;;;;;;;;;;;;;;30.41;43.13965;101907;;;;-72
2023/07/18 12:14:29;;;;;;;;;;;;;;;30.54;42.40332;101903.9;;;;-68
2023/07/18 12:19:29;;;;;;;;;;;;;;;30.7;42.73438;101903.1;;;;-70
2023/07/18 12:24:29;;;;;;;;;;;;;;;30.73;43.00586;101899.9;;;;-71
2023/07/18 12:29:29;;;;;;;;;;;;;;;30.86;42.57324;101896.2;;;;-71
2023/07/18 12:31:25;;;;;;;0.1;0;;;;;;;;;;;;;-70
2023/07/18 12:34:29;;;;;;;;;;;;;;;31.06;42.60352;101893.8;;;;-68
2023/07/18 12:39:29;;;;;;;;;;;;;;;31.03;41.72168;101889.4;;;;-70
2023/07/18 12:44:39;;;;;;;;;;;;;;;30.98;42.25586;101882.4;;;;-71
2023/07/18 12:49:29;;;;;;;;;;;;;;;31.07;42.7334;101878.8;;;;-70
2023/07/18 12:54:32;;;;;;;;;;;;;;;31.31;42.45117;101879.2;;;;-69
2023/07/18 12:59:29;;;;;;;;;;;;;;;31.55;42.70801;101872.9;;;;-69
2023/07/18 13:01:31;;;;;;;0.2;0;;;;;;;;;;;;;-70
2023/07/18 13:04:29;;;;;;;;;;;;;;;31.86;41.0459;101877.2;;;;-70
2023/07/18 13:09:29;;;;;;;;;;;;;;;32.08;39.34961;101876.2;;;;-69
2023/07/18 13:14:29;;;;;;;;;;;;;;;32.19;39.55957;101877.4;;;;-70
2023/07/18 13:19:29;;;;;;;;;;;;;;;32.05;40.39355;101876.6;;;;-69
2023/07/18 13:24:29;;;;;;;;;;;;;;;32.22;39.9375;101869.6;;;;-70
2023/07/18 13:29:29;;;;;;;;;;;;;;;32.18;39.65234;101865.3;;;;-68
2023/07/18 13:31:37;;;;;;;0.2;0;;;;;;;;;;;;;-69
2023/07/18 13:34:29;;;;;;;;;;;;;;;32.21;40.13672;101860.3;;;;-69
2023/07/18 13:39:29;;;;;;;;;;;;;;;32.3;39.75781;101858.2;;;;-69
2023/07/18 13:44:29;;;;;;;;;;;;;;;32.39;39.5293;101856.1;;;;-70
2023/07/18 13:49:31;;;;;;;;;;;;;;;32.16;39.48633;101854.2;;;;-68
2023/07/18 13:54:29;;;;;;;;;;;;;;;32.02;38.88574;101854.6;;;;-70
2023/07/18 13:59:29;;;;;;;;;;;;;;;32.06;37.85547;101849.9;;;;-69
2023/07/18 14:01:42;;;;;;;0.1;0;;;;;;;;;;;;;-70
2023/07/18 14:04:31;;;;;;;;;;;;;;;32.09;38.79785;101838.7;;;;-70
2023/07/18 14:09:31;;;;;;;;;;;;;;;32.13;38.14355;101832.1;;;;-74
2023/07/18 14:14:29;;;;;;;;;;;;;;;31.98;37.88379;101831.4;;;;-75
2023/07/18 14:19:30;;;;;;;;;;;;;;;31.87;38.35645;101821.2;;;;-76
2023/07/18 14:24:29;;;;;;;;;;;;;;;31.81;37.14063;101821.4;;;;-72
2023/07/18 14:29:29;;;;;;;;;;;;;;;31.83;37.27148;101818.2;;;;-73
2023/07/18 14:31:48;;;;;;;0.1;0;;;;;;;;;;;;;-72
2023/07/18 14:34:32;;;;;;;;;;;;;;;31.87;36.19336;101811.1;;;;-73
2023/07/18 14:39:29;;;;;;;;;;;;;;;31.79;36.39844;101805.6;;;;-74
2023/07/18 14:44:29;;;;;;;;;;;;;;;31.76;36.03125;101794.8;;;;-73
2023/07/18 14:49:32;;;;;;;;;;;;;;;31.72;35.4873;101793;;;;-73
2023/07/18 14:54:29;;;;;;;;;;;;;;;31.71;35.89746;101801.2;;;;-72
2023/07/18 14:59:33;;;;;;;;;;;;;;;31.72;35.41699;101790.8;;;;-73
2023/07/18 15:01:54;;;;;;;0.2;0.1;;;;;;;;;;;;;-74
2023/07/18 15:04:29;;;;;;;;;;;;;;;31.72;35.83984;101789.8;;;;-75
2023/07/18 15:09:29;;;;;;;;;;;;;;;31.53;36.00195;101792.4;;;;-72
2023/07/18 15:14:32;;;;;;;;;;;;;;;31.43;36.41699;101792;;;;-74
2023/07/18 15:19:29;;;;;;;;;;;;;;;31.42;35.12305;101796;;;;-76
2023/07/18 15:24:29;;;;;;;;;;;;;;;31.24;36.02539;101786.5;;;;-73
2023/07/18 15:29:29;;;;;;;;;;;;;;;31.06;36.03516;101785.8;;;;-73
2023/07/18 15:32:00;;;;;;;0.1;0;;;;;;;;;;;;;-71
2023/07/18 15:34:32;;;;;;;;;;;;;;;30.78;36.21289;101780.7;;;;-72
2023/07/18 15:39:29;;;;;;;;;;;;;;;30.65;36.76465;101775;;;;-71
2023/07/18 15:44:29;;;;;;;;;;;;;;;30.65;36.55371;101775.8;;;;-72
2023/07/18 15:49:29;;;;;;;;;;;;;;;30.6;36.87793;101773.2;;;;-72
2023/07/18 15:54:29;;;;;;;;;;;;;;;30.44;36.56055;101767.6;;;;-72
2023/07/18 15:59:29;;;;;;;;;;;;;;;30.41;37.05078;101766.1;;;;-71
2023/07/18 16:02:06;;;;;;;0.1;0;;;;;;;;;;;;;-73
2023/07/18 16:04:31;;;;;;;;;;;;;;;30.44;37.20508;101756.5;;;;-72
2023/07/18 16:09:29;;;;;;;;;;;;;;;30.28;37.5791;101748.4;;;;-73
2023/07/18 16:14:29;;;;;;;;;;;;;;;30.08;38.21777;101744.2;;;;-70
2023/07/18 16:19:29;;;;;;;;;;;;;;;29.9;38.08594;101740.7;;;;-71
2023/07/18 16:24:29;;;;;;;;;;;;;;;29.72;38.59668;101734.5;;;;-73
2023/07/18 16:29:29;;;;;;;;;;;;;;;29.54;38.88574;101732.4;;;;-76
2023/07/18 16:32:11;;;;;;;0.1;0;;;;;;;;;;;;;-75
2023/07/18 16:34:40;;;;;;;;;;;;;;;29.32;39.00684;101726.7;;;;-73
2023/07/18 16:39:29;;;;;;;;;;;;;;;29.08;39.62793;101714.6;;;;-74
2023/07/18 16:44:29;;;;;;;;;;;;;;;28.89;39.8916;101715.2;;;;-72
2023/07/18 16:49:29;;;;;;;;;;;;;;;28.71;39.98145;101710.8;;;;-72
2023/07/18 16:54:29;;;;;;;;;;;;;;;28.53;39.84961;101704.3;;;;-72
2023/07/18 16:59:32;;;;;;;;;;;;;;;28.33;39.88965;101700.8;;;;-71
2023/07/18 17:02:17;;;;;;;0.2;0;;;;;;;;;;;;;-72
2023/07/18 17:04:29;;;;;;;;;;;;;;;28.11;39.74316;101692.8;;;;-71
2023/07/18 17:09:29;;;;;;;;;;;;;;;27.91;40.24805;101692.1;;;;-72
2023/07/18 17:14:29;;;;;;;;;;;;;;;27.67;40.40234;101699.7;;;;-70
2023/07/18 17:19:31;;;;;;;;;;;;;;;27.43;40.46191;101699.2;;;;-71
2023/07/18 17:24:31;;;;;;;;;;;;;;;27.18;40.74219;101699.3;;;;-70
2023/07/18 17:29:29;;;;;;;;;;;;;;;26.94;40.78906;101694.7;;;;-74
2023/07/18 17:32:21;;;;;;;0.1;0;;;;;;;;;;;;;-71
2023/07/18 17:34:29;;;;;;;;;;;;;;;26.74;40.85352;101690.8;;;;-71
2023/07/18 17:39:32;;;;;;;;;;;;;;;26.55;40.96387;101692;;;;-72
2023/07/18 17:44:29;;;;;;;;;;;;;;;26.38;41.12207;101692.8;;;;-71
2023/07/18 17:49:29;;;;;;;;;;;;;;;26.21;41.28027;101691.1;;;;-71
2023/07/18 17:54:29;;;;;;;;;;;;;;;26.03;41.32129;101689.4;;;;-73
2023/07/18 17:59:33;;;;;;;;;;;;;;;25.24;42.8125;101687;;;;-78
2023/07/18 18:02:28;;;;;;;0.1;0;;;;;;;;;;;;;-72
2023/07/18 18:04:36;;;;;;;;;;;;;;;24.43;45.44727;101678.2;;;;-74
2023/07/18 18:09:29;;;;;;;;;;;;;;;25.01;43.39063;101661.3;;;;-70
2023/07/18 18:14:29;;;;;;;;;;;;;;;25.07;42.25195;101658.5;;;;-70
2023/07/18 18:19:29;;;;;;;;;;;;;;;24.95;42.20605;101661.4;;;;-71
2023/07/18 18:24:29;;;;;;;;;;;;;;;24.82;42.18262;101671.5;;;;-70
2023/07/18 18:29:30;;;;;;;;;;;;;;;24.65;42.37402;101679.6;;;;-73
2023/07/18 18:32:30;;;;;;;0.3;0.1;;;;;;;;;;;;;-72
2023/07/18 18:34:32;;;;;;;;;;;;;;;24.48;42.40527;101674.1;;;;-74
2023/07/18 18:39:31;;;;;;;;;;;;;;;24.31;42.39941;101670.7;;;;-73
2023/07/18 18:44:29;;;;;;;;;;;;;;;24.15;42.45313;101663.5;;;;-72
2023/07/18 18:49:30;;;;;;;;;;;;;;;24;43.04004;101655.8;;;;-75
2023/07/18 18:54:31;;;;;;;;;;;;;;;23.86;42.85352;101657.2;;;;-71
2023/07/18 18:59:29;;;;;;;;;;;;;;;23.71;42.94238;101645.3;;;;-72
2023/07/18 19:02:35;;;;;;;0.2;0;;;;;;;;;;;;;-71
2023/07/18 19:04:29;;;;;;;;;;;;;;;23.58;43.03516;101632.3;;;;-73
2023/07/18 19:09:29;;;;;;;;;;;;;;;23.46;43.18359;101627.2;;;;-71
2023/07/18 19:14:29;;;;;;;;;;;;;;;23.34;43.64453;101626.7;;;;-71
2023/07/18 19:19:29;;;;;;;;;;;;;;;23.23;43.78223;101620.4;;;;-75
2023/07/18 19:24:29;;;;;;;;;;;;;;;23.13;43.7959;101622.3;;;;-72
2023/07/18 19:29:30;;;;;;;;;;;;;;;23.06;44.08887;101632.3;;;;-71
2023/07/18 19:32:40;;;;;;;0.2;0;;;;;;;;;;;;;-69
2023/07/18 19:34:29;;;;;;;;;;;;;;;22.92;44.56934;101632.8;;;;-69
2023/07/18 19:39:29;;;;;;;;;;;;;;;22.79;44.68262;101651.7;;;;-69
2023/07/18 19:44:29;;;;;;;;;;;;;;;22.64;45.24316;101644.7;;;;-68
2023/07/18 19:49:37;;;;;;;;;;;;;;;22.47;45.4209;101645.5;;;;-68
2023/07/18 19:54:32;;;;;;;;;;;;;;;22.29;45.97754;101627.5;;;;-69
2023/07/18 19:59:29;;;;;;;;;;;;;;;22.13;46.48828;101623.4;;;;-67
2023/07/18 20:02:42;;;;;;;0.4;0.1;;;;;;;;;;;;;-68
2023/07/18 20:04:29;;;;;;;;;;;;;;;21.99;46.3252;101630.5;;;;-69
2023/07/18 20:09:29;;;;;;;;;;;;;;;21.86;46.93066;101627.1;;;;-68
2023/07/18 20:14:29;;;;;;;;;;;;;;;21.73;46.88281;101613.8;;;;-67
2023/07/18 20:19:29;;;;;;;;;;;;;;;21.61;47.11035;101605.8;;;;-72
2023/07/18 20:24:29;;;;;;;;;;;;;;;21.49;47.38477;101598.3;;;;-72
2023/07/18 20:29:30;;;;;;;;;;;;;;;21.37;47.29102;101598;;;;-71
2023/07/18 20:32:45;;;;;;;0.2;0;;;;;;;;;;;;;-72
2023/07/18 20:34:32;;;;;;;;;;;;;;;21.29;47.34082;101604.1;;;;-70
2023/07/18 20:39:31;;;;;;;;;;;;;;;21.14;47.74805;101599.5;;;;-72
2023/07/18 20:44:29;;;;;;;;;;;;;;;21.03;48.1709;101597.3;;;;-72
2023/07/18 20:49:29;;;;;;;;;;;;;;;20.93;48.22949;101595.7;;;;-71
2023/07/18 20:54:34;;;;;;;;;;;;;;;20.83;48.61914;101592.3;;;;-67
2023/07/18 20:59:29;;;;;;;;;;;;;;;20.74;49.08789;101585.8;;;;-67
2023/07/18 21:02:49;;;;;;;0.2;0;;;;;;;;;;;;;-66
2023/07/18 21:04:29;;;;;;;;;;;;;;;20.63;48.92773;101585.6;;;;-70
2023/07/18 21:09:29;;;;;;;;;;;;;;;20.49;49.30078;101581.8;;;;-67
2023/07/18 21:14:29;;;;;;;;;;;;;;;20.37;49.43652;101573.9;;;;-71
2023/07/18 21:19:29;;;;;;;;;;;;;;;20.21;49.85254;101566.3;;;;-67
2023/07/18 21:24:30;;;;;;;;;;;;;;;20.12;49.92285;101569.2;;;;-68
2023/07/18 21:29:29;;;;;;;;;;;;;;;20;49.8623;101576.3;;;;-66
2023/07/18 21:32:53;;;;;;;0.2;0;;;;;;;;;;;;;-68
2023/07/18 21:34:29;;;;;;;;;;;;;;;19.89;50.10059;101578;;;;-68
2023/07/18 21:39:29;;;;;;;;;;;;;;;19.78;50.66895;101584.6;;;;-69
2023/07/18 21:44:29;;;;;;;;;;;;;;;19.64;51.00684;101578.3;;;;-68
2023/07/18 21:49:29;;;;;;;;;;;;;;;19.53;51.4502;101573.5;;;;-68
2023/07/18 21:54:29;;;;;;;;;;;;;;;19.39;51.57129;101570.7;;;;-69
2023/07/18 21:59:29;;;;;;;;;;;;;;;19.31;51.36816;101569.1;;;;-68
2023/07/18 22:02:55;;;;;;;0.3;0.1;;;;;;;;;;;;;-69
2023/07/18 22:04:29;;;;;;;;;;;;;;;19.24;51.96387;101578.7;;;;-69
2023/07/18 22:09:29;;;;;;;;;;;;;;;19.19;51.87793;101578.7;;;;-69
2023/07/18 22:14:29;;;;;;;;;;;;;;;19.1;52.09473;101584.3;;;;-69
2023/07/18 22:19:29;;;;;;;;;;;;;;;18.97;52.2959;101583.4;;;;-71
2023/07/18 22:24:29;;;;;;;;;;;;;;;18.88;52.53516;101587.2;;;;-67
2023/07/18 22:29:29;;;;;;;;;;;;;;;18.85;52.58887;101581.2;;;;-69
2023/07/18 22:33:07;;;;;;;0.2;0;;;;;;;;;;;;;-68
2023/07/18 22:34:33;;;;;;;;;;;;;;;18.73;52.58691;101581;;;;-69
2023/07/18 22:39:29;;;;;;;;;;;;;;;18.65;52.74707;101578.8;;;;-67
2023/07/18 22:44:29;;;;;;;;;;;;;;;18.54;52.88184;101573.1;;;;-70
2023/07/18 22:49:31;;;;;;;;;;;;;;;18.46;53.05371;101565.8;;;;-70
2023/07/18 22:54:29;;;;;;;;;;;;;;;18.37;53.06445;101558.9;;;;-70
2023/07/18 22:59:29;;;;;;;;;;;;;;;18.34;53.22168;101560.4;;;;-68
2023/07/18 23:03:00;;;;;;;0.3;0.1;;;;;;;;;;;;;-69
2023/07/18 23:04:29;;;;;;;;;;;;;;;18.27;52.88379;101554.2;;;;-68
2023/07/18 23:09:31;;;;;;;;;;;;;;;18.26;53.09668;101558.1;;;;-67
2023/07/18 23:14:29;;;;;;;;;;;;;;;18.13;53.12695;101555.4;;;;-68
2023/07/18 23:19:29;;;;;;;;;;;;;;;18.12;53.13867;101552.5;;;;-69
2023/07/18 23:24:29;;;;;;;;;;;;;;;18.1;53.1123;101543.7;;;;-67
2023/07/18 23:29:29;;;;;;;;;;;;;;;18.11;53.13672;101528.2;;;;-69
2023/07/18 23:33:03;;;;;;;11;1.1;;;;;;;;;;;;;-68
2023/07/18 23:34:29;;;;;;;;;;;;;;;18.07;53.03027;101528.5;;;;-68
2023/07/18 23:39:29;;;;;;;;;;;;;;;18.05;53.1416;101524;;;;-68
2023/07/18 23:44:29;;;;;;;;;;;;;;;18.05;53.2207;101517.7;;;;-67
2023/07/18 23:49:29;;;;;;;;;;;;;;;17.98;53.41602;101515.6;;;;-69
2023/07/18 23:54:29;;;;;;;;;;;;;;;17.98;53.29102;101515.8;;;;-68
2023/07/18 23:59:29;;;;;;;;;;;;;;;17.93;53.62598;101520.3;;;;-68
